Terminal Aerodrome Forecast
Issued by NWS Paducah, KY

Home | Current Version | Previous Version | Text Only | Print | Product List | Glossary On
Versions: 1 2 3 4 5 6 7 8 9 10 11 12 13
484
FTUS43 KPAH 050520
TAFPAH
TAF
KPAH 050520Z 0506/0606 35005KT P6SM SCT100
     FM051400 35012G20KT P6SM SCT050
     FM051800 35014G24KT P6SM BKN050
     FM060100 34007KT P6SM SCT100=

USA.gov is the U.S. government's official web portal to all federal, state and local government web resources and services.